sensor_id;sensor_type;location;lat;lon;timestamp;pressure;altitude;pressure_sealevel;temperature;humidity
46534;BME280;32260;52.008;4.752;2023-01-15T00:01:44;99876.69;;;9.58;58.92
46534;BME280;32260;52.008;4.752;2023-01-15T00:04:11;99869.66;;;9.59;58.60
46534;BME280;32260;52.008;4.752;2023-01-15T00:06:40;99869.69;;;9.57;58.25
46534;BME280;32260;52.008;4.752;2023-01-15T00:09:07;99882.00;;;9.58;58.62
46534;BME280;32260;52.008;4.752;2023-01-15T00:11:34;99877.78;;;9.52;58.33
46534;BME280;32260;52.008;4.752;2023-01-15T00:14:00;99871.31;;;9.61;58.88
46534;BME280;32260;52.008;4.752;2023-01-15T00:16:26;99874.88;;;9.60;59.07
46534;BME280;32260;52.008;4.752;2023-01-15T00:18:55;99875.19;;;9.51;58.94
46534;BME280;32260;52.008;4.752;2023-01-15T00:21:22;99874.31;;;9.50;59.05
46534;BME280;32260;52.008;4.752;2023-01-15T00:23:48;99860.03;;;9.56;58.92
46534;BME280;32260;52.008;4.752;2023-01-15T00:26:35;99857.47;;;9.53;59.13
46534;BME280;32260;52.008;4.752;2023-01-15T00:29:23;99861.78;;;9.55;58.92
46534;BME280;32260;52.008;4.752;2023-01-15T00:31:55;99853.91;;;9.54;58.72
46534;BME280;32260;52.008;4.752;2023-01-15T00:34:22;99853.16;;;9.50;58.70
46534;BME280;32260;52.008;4.752;2023-01-15T00:36:49;99854.09;;;9.48;57.83
46534;BME280;32260;52.008;4.752;2023-01-15T00:39:15;99850.50;;;9.50;57.92
46534;BME280;32260;52.008;4.752;2023-01-15T00:41:41;99854.81;;;9.54;57.60
46534;BME280;32260;52.008;4.752;2023-01-15T00:44:07;99858.56;;;9.46;57.22
46534;BME280;32260;52.008;4.752;2023-01-15T00:46:33;99863.47;;;9.58;57.63
46534;BME280;32260;52.008;4.752;2023-01-15T00:49:00;99856.75;;;9.48;56.77
46534;BME280;32260;52.008;4.752;2023-01-15T00:51:26;99864.75;;;9.46;56.77
46534;BME280;32260;52.008;4.752;2023-01-15T00:53:52;99852.00;;;9.59;56.94
46534;BME280;32260;52.008;4.752;2023-01-15T00:56:18;99855.84;;;9.49;56.78
46534;BME280;32260;52.008;4.752;2023-01-15T00:58:44;99856.66;;;9.51;56.84
46534;BME280;32260;52.008;4.752;2023-01-15T01:01:12;99853.09;;;9.52;57.04
46534;BME280;32260;52.008;4.752;2023-01-15T01:03:39;99852.28;;;9.50;57.38
46534;BME280;32260;52.008;4.752;2023-01-15T01:06:05;99862.19;;;9.43;56.84
46534;BME280;32260;52.008;4.752;2023-01-15T01:08:31;99854.09;;;9.48;57.03
46534;BME280;32260;52.008;4.752;2023-01-15T01:11:07;99869.91;;;9.49;57.03
46534;BME280;32260;52.008;4.752;2023-01-15T01:13:34;99861.13;;;9.49;57.02
46534;BME280;32260;52.008;4.752;2023-01-15T01:16:01;99866.50;;;9.46;56.89
46534;BME280;32260;52.008;4.752;2023-01-15T01:18:27;99868.44;;;9.41;56.26
46534;BME280;32260;52.008;4.752;2023-01-15T01:20:54;99862.00;;;9.49;56.48
46534;BME280;32260;52.008;4.752;2023-01-15T01:23:22;99865.59;;;9.47;56.48
46534;BME280;32260;52.008;4.752;2023-01-15T01:25:49;99873.44;;;9.50;56.78
46534;BME280;32260;52.008;4.752;2023-01-15T01:28:15;99870.28;;;9.38;56.53
46534;BME280;32260;52.008;4.752;2023-01-15T01:30:41;99873.53;;;9.47;56.98
46534;BME280;32260;52.008;4.752;2023-01-15T01:33:07;99882.47;;;9.43;56.91
46534;BME280;32260;52.008;4.752;2023-01-15T01:35:33;99878.81;;;9.47;57.35
46534;BME280;32260;52.008;4.752;2023-01-15T01:38:00;99878.16;;;9.40;56.96
46534;BME280;32260;52.008;4.752;2023-01-15T01:40:26;99869.38;;;9.38;56.63
46534;BME280;32260;52.008;4.752;2023-01-15T01:42:52;99872.00;;;9.39;55.96
46534;BME280;32260;52.008;4.752;2023-01-15T01:45:23;99871.84;;;9.44;56.43
46534;BME280;32260;52.008;4.752;2023-01-15T01:47:53;99878.03;;;9.43;56.18
46534;BME280;32260;52.008;4.752;2023-01-15T01:50:21;99880.03;;;9.36;56.17
46534;BME280;32260;52.008;4.752;2023-01-15T01:52:52;99878.03;;;9.43;56.26
46534;BME280;32260;52.008;4.752;2023-01-15T01:55:23;99882.59;;;9.39;56.42
46534;BME280;32260;52.008;4.752;2023-01-15T01:57:51;99886.50;;;9.26;55.93
46534;BME280;32260;52.008;4.752;2023-01-15T02:00:20;99880.97;;;9.34;55.61
46534;BME280;32260;52.008;4.752;2023-01-15T02:02:48;99876.28;;;9.44;56.16
46534;BME280;32260;52.008;4.752;2023-01-15T02:05:30;99880.56;;;9.48;55.97
46534;BME280;32260;52.008;4.752;2023-01-15T02:07:57;99888.81;;;9.37;55.66
46534;BME280;32260;52.008;4.752;2023-01-15T02:10:23;99878.34;;;9.34;55.30
46534;BME280;32260;52.008;4.752;2023-01-15T02:13:11;99875.97;;;9.54;55.70
46534;BME280;32260;52.008;4.752;2023-01-15T02:15:44;99871.84;;;9.44;55.63
46534;BME280;32260;52.008;4.752;2023-01-15T02:18:28;99865.00;;;9.37;54.85
46534;BME280;32260;52.008;4.752;2023-01-15T02:20:59;99875.19;;;9.51;54.99
46534;BME280;32260;52.008;4.752;2023-01-15T02:26:35;99851.06;;;9.33;55.50
46534;BME280;32260;52.008;4.752;2023-01-15T02:29:02;99858.22;;;9.30;55.35
46534;BME280;32260;52.008;4.752;2023-01-15T02:31:36;99866.94;;;9.32;55.45
46534;BME280;32260;52.008;4.752;2023-01-15T02:34:11;99853.81;;;9.29;55.05
46534;BME280;32260;52.008;4.752;2023-01-15T02:36:43;99847.66;;;9.28;55.30
46534;BME280;32260;52.008;4.752;2023-01-15T02:39:13;99856.53;;;9.27;55.56
46534;BME280;32260;52.008;4.752;2023-01-15T02:41:45;99871.69;;;9.20;55.26
46534;BME280;32260;52.008;4.752;2023-01-15T02:44:17;99857.44;;;9.26;55.55
46534;BME280;32260;52.008;4.752;2023-01-15T02:46:45;99859.97;;;9.29;55.71
46534;BME280;32260;52.008;4.752;2023-01-15T02:49:16;99859.97;;;9.29;56.25
46534;BME280;32260;52.008;4.752;2023-01-15T02:52:03;99867.22;;;9.22;56.13
46534;BME280;32260;52.008;4.752;2023-01-15T02:54:38;99854.78;;;9.26;56.31
46534;BME280;32260;52.008;4.752;2023-01-15T02:57:05;99850.72;;;9.14;56.05
46534;BME280;32260;52.008;4.752;2023-01-15T02:59:37;99846.13;;;9.21;55.64
46534;BME280;32260;52.008;4.752;2023-01-15T03:02:08;99859.25;;;9.24;55.76
46534;BME280;32260;52.008;4.752;2023-01-15T03:04:47;99872.56;;;9.21;55.23
46534;BME280;32260;52.008;4.752;2023-01-15T03:09:56;99844.47;;;9.17;55.05
46534;BME280;32260;52.008;4.752;2023-01-15T03:12:33;99850.59;;;9.19;54.66
46534;BME280;32260;52.008;4.752;2023-01-15T03:15:25;99855.94;;;9.17;55.04
46534;BME280;32260;52.008;4.752;2023-01-15T03:18:14;99846.16;;;9.19;55.17
46534;BME280;32260;52.008;4.752;2023-01-15T03:20:50;99842.59;;;9.20;55.25
46534;BME280;32260;52.008;4.752;2023-01-15T03:23:18;99860.34;;;9.17;55.58
46534;BME280;32260;52.008;4.752;2023-01-15T03:25:49;99845.38;;;9.16;56.96
46534;BME280;32260;52.008;4.752;2023-01-15T03:28:20;99836.00;;;9.05;57.49
46534;BME280;32260;52.008;4.752;2023-01-15T03:30:49;99834.56;;;8.95;58.67
46534;BME280;32260;52.008;4.752;2023-01-15T03:33:15;99840.28;;;8.80;58.00
46534;BME280;32260;52.008;4.752;2023-01-15T03:35:53;99839.66;;;8.71;58.60
46534;BME280;32260;52.008;4.752;2023-01-15T03:38:28;99856.41;;;8.70;58.43
46534;BME280;32260;52.008;4.752;2023-01-15T03:41:18;99861.69;;;8.70;59.08
46534;BME280;32260;52.008;4.752;2023-01-15T03:46:49;99840.56;;;8.70;59.16
46534;BME280;32260;52.008;4.752;2023-01-15T03:49:41;99836.09;;;8.72;59.13
46534;BME280;32260;52.008;4.752;2023-01-15T04:02:52;99842.25;;;8.73;58.44
46534;BME280;32260;52.008;4.752;2023-01-15T04:05:19;99841.41;;;8.71;58.01
46534;BME280;32260;52.008;4.752;2023-01-15T04:07:46;99836.13;;;8.71;57.97
46534;BME280;32260;52.008;4.752;2023-01-15T04:10:14;99835.00;;;8.80;57.75
46534;BME280;32260;52.008;4.752;2023-01-15T04:12:40;99841.22;;;8.77;58.15
46534;BME280;32260;52.008;4.752;2023-01-15T04:15:06;99845.06;;;8.67;57.28
46534;BME280;32260;52.008;4.752;2023-01-15T04:17:33;99837.63;;;8.80;57.52
46534;BME280;32260;52.008;4.752;2023-01-15T04:19:59;99853.31;;;8.86;57.82
46534;BME280;32260;52.008;4.752;2023-01-15T04:22:25;99838.47;;;8.82;57.19
46534;BME280;32260;52.008;4.752;2023-01-15T04:24:51;99841.94;;;8.84;57.27
46534;BME280;32260;52.008;4.752;2023-01-15T04:27:19;99837.44;;;8.87;57.77
46534;BME280;32260;52.008;4.752;2023-01-15T04:29:45;99839.25;;;8.85;57.92
46534;BME280;32260;52.008;4.752;2023-01-15T04:32:11;99848.00;;;8.87;57.89
46534;BME280;32260;52.008;4.752;2023-01-15T04:34:38;99840.09;;;8.86;57.81
46534;BME280;32260;52.008;4.752;2023-01-15T04:37:04;99833.84;;;8.90;57.89
46534;BME280;32260;52.008;4.752;2023-01-15T04:39:30;99836.66;;;8.84;57.45
46534;BME280;32260;52.008;4.752;2023-01-15T04:41:56;99838.28;;;8.88;57.23
46534;BME280;32260;52.008;4.752;2023-01-15T04:44:42;99831.25;;;8.87;57.23
46534;BME280;32260;52.008;4.752;2023-01-15T04:47:08;99836.66;;;8.84;57.18
46534;BME280;32260;52.008;4.752;2023-01-15T04:49:35;99855.78;;;8.92;57.21
46534;BME280;32260;52.008;4.752;2023-01-15T04:52:02;99850.63;;;8.87;56.87
46534;BME280;32260;52.008;4.752;2023-01-15T04:54:28;99840.69;;;8.97;56.08
46534;BME280;32260;52.008;4.752;2023-01-15T04:56:55;99839.91;;;8.94;56.50
46534;BME280;32260;52.008;4.752;2023-01-15T04:59:23;99837.44;;;8.87;56.11
46534;BME280;32260;52.008;4.752;2023-01-15T05:01:50;99830.13;;;8.96;55.54
46534;BME280;32260;52.008;4.752;2023-01-15T05:04:16;99828.59;;;8.88;55.05
46534;BME280;32260;52.008;4.752;2023-01-15T05:06:42;99827.47;;;8.97;54.92
46534;BME280;32260;52.008;4.752;2023-01-15T05:09:09;99841.59;;;8.96;54.97
46534;BME280;32260;52.008;4.752;2023-01-15T05:11:36;99838.28;;;8.88;54.38
46534;BME280;32260;52.008;4.752;2023-01-15T05:14:03;99824.25;;;8.86;53.59
46534;BME280;32260;52.008;4.752;2023-01-15T05:16:31;99825.75;;;8.95;53.98
46534;BME280;32260;52.008;4.752;2023-01-15T05:19:00;99827.94;;;8.80;53.36
46534;BME280;32260;52.008;4.752;2023-01-15T05:21:30;99824.94;;;8.93;52.67
46534;BME280;32260;52.008;4.752;2023-01-15T05:23:58;99818.78;;;8.92;52.74
46534;BME280;32260;52.008;4.752;2023-01-15T05:26:26;99824.19;;;8.89;52.29
46534;BME280;32260;52.008;4.752;2023-01-15T05:28:54;99838.38;;;8.85;52.03
46534;BME280;32260;52.008;4.752;2023-01-15T05:31:22;99828.50;;;8.92;51.80
46534;BME280;32260;52.008;4.752;2023-01-15T05:33:49;99833.34;;;8.76;51.04
46534;BME280;32260;52.008;4.752;2023-01-15T05:36:20;99825.06;;;8.88;51.54
46534;BME280;32260;52.008;4.752;2023-01-15T05:38:46;99823.56;;;8.79;51.56
46534;BME280;32260;52.008;4.752;2023-01-15T05:41:15;99817.34;;;8.82;50.66
46534;BME280;32260;52.008;4.752;2023-01-15T05:44:05;99820.63;;;8.90;50.76
46534;BME280;32260;52.008;4.752;2023-01-15T05:46:33;99824.84;;;8.96;51.24
46534;BME280;32260;52.008;4.752;2023-01-15T05:49:04;99832.75;;;8.97;51.29
46534;BME280;32260;52.008;4.752;2023-01-15T05:51:32;99819.13;;;8.81;52.76
46534;BME280;32260;52.008;4.752;2023-01-15T05:53:58;99828.59;;;8.57;53.28
46534;BME280;32260;52.008;4.752;2023-01-15T05:56:25;99847.97;;;8.56;53.83
46534;BME280;32260;52.008;4.752;2023-01-15T05:58:51;99828.13;;;8.41;55.58
46534;BME280;32260;52.008;4.752;2023-01-15T06:01:18;99850.44;;;8.29;55.59
46534;BME280;32260;52.008;4.752;2023-01-15T06:03:44;99852.13;;;7.97;56.52
46534;BME280;32260;52.008;4.752;2023-01-15T06:06:14;99859.09;;;8.00;55.59
46534;BME280;32260;52.008;4.752;2023-01-15T06:08:41;99851.22;;;7.98;56.47
46534;BME280;32260;52.008;4.752;2023-01-15T06:11:07;99850.56;;;7.90;56.45
46534;BME280;32260;52.008;4.752;2023-01-15T06:13:33;99859.25;;;7.93;56.48
46534;BME280;32260;52.008;4.752;2023-01-15T06:16:00;99850.69;;;7.85;56.58
46534;BME280;32260;52.008;4.752;2023-01-15T06:18:27;99866.75;;;7.74;57.14
46534;BME280;32260;52.008;4.752;2023-01-15T06:20:53;99861.53;;;7.73;56.38
46534;BME280;32260;52.008;4.752;2023-01-15T06:23:19;99863.44;;;7.66;55.23
46534;BME280;32260;52.008;4.752;2023-01-15T06:25:45;99865.13;;;7.70;54.45
46534;BME280;32260;52.008;4.752;2023-01-15T06:28:11;99861.41;;;7.77;54.20
46534;BME280;32260;52.008;4.752;2023-01-15T06:30:39;99864.78;;;7.84;54.61
46534;BME280;32260;52.008;4.752;2023-01-15T06:33:05;99864.97;;;7.75;53.48
46534;BME280;32260;52.008;4.752;2023-01-15T06:35:32;99862.88;;;7.89;54.24
46534;BME280;32260;52.008;4.752;2023-01-15T06:37:58;99861.88;;;7.95;54.46
46534;BME280;32260;52.008;4.752;2023-01-15T06:40:27;99861.78;;;7.98;54.12
46534;BME280;32260;52.008;4.752;2023-01-15T06:42:56;99860.19;;;7.91;54.95
46534;BME280;32260;52.008;4.752;2023-01-15T06:45:43;99852.28;;;7.91;54.42
46534;BME280;32260;52.008;4.752;2023-01-15T06:48:29;99847.91;;;7.90;54.90
46534;BME280;32260;52.008;4.752;2023-01-15T06:50:55;99842.78;;;7.84;55.06
46534;BME280;32260;52.008;4.752;2023-01-15T06:53:21;99845.41;;;7.85;55.19
46534;BME280;32260;52.008;4.752;2023-01-15T06:55:47;99867.75;;;7.70;54.17
46534;BME280;32260;52.008;4.752;2023-01-15T06:58:13;99826.06;;;7.86;54.74
46534;BME280;32260;52.008;4.752;2023-01-15T07:00:40;99838.34;;;7.86;53.96
46534;BME280;32260;52.008;4.752;2023-01-15T07:03:11;99845.44;;;7.84;53.80
46534;BME280;32260;52.008;4.752;2023-01-15T07:05:39;99840.00;;;7.90;54.08
46534;BME280;32260;52.008;4.752;2023-01-15T07:08:06;99838.34;;;7.86;53.91
46534;BME280;32260;52.008;4.752;2023-01-15T07:10:34;99842.88;;;7.81;54.71
46534;BME280;32260;52.008;4.752;2023-01-15T07:13:00;99849.00;;;7.83;54.39
46534;BME280;32260;52.008;4.752;2023-01-15T07:15:26;99850.78;;;7.81;54.16
46534;BME280;32260;52.008;4.752;2023-01-15T07:17:55;99843.63;;;7.86;54.11
46534;BME280;32260;52.008;4.752;2023-01-15T07:20:21;99833.81;;;7.91;54.05
46534;BME280;32260;52.008;4.752;2023-01-15T07:22:49;99845.25;;;7.91;54.54
46534;BME280;32260;52.008;4.752;2023-01-15T07:25:15;99842.63;;;7.90;54.73
46534;BME280;32260;52.008;4.752;2023-01-15T07:27:41;99854.97;;;7.89;55.09
46534;BME280;32260;52.008;4.752;2023-01-15T07:30:08;99850.75;;;7.82;55.12
46534;BME280;32260;52.008;4.752;2023-01-15T07:32:34;99837.50;;;7.84;55.33
46534;BME280;32260;52.008;4.752;2023-01-15T07:35:00;99850.75;;;7.82;54.60
46534;BME280;32260;52.008;4.752;2023-01-15T07:37:27;99838.41;;;7.84;55.50
46534;BME280;32260;52.008;4.752;2023-01-15T07:39:53;99842.84;;;7.82;55.63
46534;BME280;32260;52.008;4.752;2023-01-15T07:42:19;99836.75;;;7.80;55.36
46534;BME280;32260;52.008;4.752;2023-01-15T07:45:05;99847.31;;;7.80;54.99
46534;BME280;32260;52.008;4.752;2023-01-15T07:47:52;99834.13;;;7.78;55.16
46534;BME280;32260;52.008;4.752;2023-01-15T07:50:38;99833.06;;;7.86;54.44
46534;BME280;32260;52.008;4.752;2023-01-15T07:53:04;99853.34;;;7.84;54.39
46534;BME280;32260;52.008;4.752;2023-01-15T07:55:31;99826.91;;;7.87;54.91
46534;BME280;32260;52.008;4.752;2023-01-15T07:57:57;99830.22;;;7.95;54.94
46534;BME280;32260;52.008;4.752;2023-01-15T08:00:24;99826.06;;;7.86;55.03
46534;BME280;32260;52.008;4.752;2023-01-15T08:02:52;99833.91;;;7.88;55.32
46534;BME280;32260;52.008;4.752;2023-01-15T08:05:19;99817.78;;;8.00;54.70
46534;BME280;32260;52.008;4.752;2023-01-15T08:07:45;99832.88;;;7.93;54.78
46534;BME280;32260;52.008;4.752;2023-01-15T08:10:12;99838.94;;;7.97;55.14
46534;BME280;32260;52.008;4.752;2023-01-15T08:12:39;99826.44;;;8.05;54.87
46534;BME280;32260;52.008;4.752;2023-01-15T08:15:25;99853.34;;;8.18;55.23
46534;BME280;32260;52.008;4.752;2023-01-15T08:17:53;99857.78;;;8.18;55.51
46534;BME280;32260;52.008;4.752;2023-01-15T08:20:21;99839.34;;;8.16;55.58
46534;BME280;32260;52.008;4.752;2023-01-15T08:22:48;99853.03;;;8.31;55.38
46534;BME280;32260;52.008;4.752;2023-01-15T08:25:17;99845.91;;;8.34;55.48
46534;BME280;32260;52.008;4.752;2023-01-15T08:27:44;99847.72;;;8.32;55.57
46534;BME280;32260;52.008;4.752;2023-01-15T08:30:13;99841.38;;;8.39;55.23
46534;BME280;32260;52.008;4.752;2023-01-15T08:32:40;99834.19;;;8.45;55.12
46534;BME280;32260;52.008;4.752;2023-01-15T08:35:07;99840.28;;;8.48;55.12
46534;BME280;32260;52.008;4.752;2023-01-15T08:37:33;99831.72;;;8.38;55.47
46534;BME280;32260;52.008;4.752;2023-01-15T08:39:59;99827.97;;;8.49;55.39
46534;BME280;32260;52.008;4.752;2023-01-15T08:42:25;99844.06;;;8.38;55.50
46534;BME280;32260;52.008;4.752;2023-01-15T08:44:51;99836.56;;;8.55;55.39
46534;BME280;32260;52.008;4.752;2023-01-15T08:47:17;99841.28;;;8.42;56.16
46534;BME280;32260;52.008;4.752;2023-01-15T08:49:45;99841.00;;;8.55;55.55
46534;BME280;32260;52.008;4.752;2023-01-15T08:52:12;99837.41;;;8.56;55.83
46534;BME280;32260;52.008;4.752;2023-01-15T08:54:38;99858.47;;;8.59;55.77
46534;BME280;32260;52.008;4.752;2023-01-15T08:57:04;99832.31;;;8.50;55.68
46534;BME280;32260;52.008;4.752;2023-01-15T08:59:31;99842.47;;;8.65;55.55
46534;BME280;32260;52.008;4.752;2023-01-15T09:01:57;99839.88;;;8.62;55.34
46534;BME280;32260;52.008;4.752;2023-01-15T09:04:23;99851.38;;;8.61;55.13
46534;BME280;32260;52.008;4.752;2023-01-15T09:06:49;99841.38;;;8.72;54.66
46534;BME280;32260;52.008;4.752;2023-01-15T09:09:16;99842.19;;;8.74;55.01
46534;BME280;32260;52.008;4.752;2023-01-15T09:11:44;99842.91;;;8.81;54.98
46534;BME280;32260;52.008;4.752;2023-01-15T09:14:13;99836.84;;;8.78;55.44
46534;BME280;32260;52.008;4.752;2023-01-15T09:16:39;99844.94;;;8.71;54.94
46534;BME280;32260;52.008;4.752;2023-01-15T09:19:06;99824.19;;;8.89;54.76
46534;BME280;32260;52.008;4.752;2023-01-15T09:21:33;99855.94;;;8.86;54.95
46534;BME280;32260;52.008;4.752;2023-01-15T09:23:59;99854.25;;;8.83;54.66
46534;BME280;32260;52.008;4.752;2023-01-15T09:29:05;99836.13;;;9.02;53.87
46534;BME280;32260;52.008;4.752;2023-01-15T09:31:32;99837.94;;;9.00;54.13
46534;BME280;32260;52.008;4.752;2023-01-15T09:33:58;99838.56;;;9.09;54.02
46534;BME280;32260;52.008;4.752;2023-01-15T09:36:28;99846.94;;;8.93;53.65
46534;BME280;32260;52.008;4.752;2023-01-15T09:38:55;99849.09;;;9.10;53.16
46534;BME280;32260;52.008;4.752;2023-01-15T09:41:23;99844.78;;;9.07;52.89
46534;BME280;32260;52.008;4.752;2023-01-15T09:44:32;99852.63;;;9.09;52.18
46534;BME280;32260;52.008;4.752;2023-01-15T09:48:06;99840.75;;;9.24;52.32
46534;BME280;32260;52.008;4.752;2023-01-15T09:49:59;99843.19;;;9.30;54.11
46534;BME280;32260;52.008;4.752;2023-01-15T09:55:20;99833.44;;;9.32;55.36
46534;BME280;32260;52.008;4.752;2023-01-15T09:57:53;99837.19;;;9.25;55.26
46534;BME280;32260;52.008;4.752;2023-01-15T10:00:23;99839.13;;;9.20;55.51
46534;BME280;32260;52.008;4.752;2023-01-15T10:03:56;99857.31;;;9.29;55.83
46534;BME280;32260;52.008;4.752;2023-01-15T10:05:44;99858.38;;;9.23;55.84
46534;BME280;32260;52.008;4.752;2023-01-15T10:08:30;99837.38;;;9.19;55.65
46534;BME280;32260;52.008;4.752;2023-01-15T10:11:20;99858.06;;;9.04;56.17
46534;BME280;32260;52.008;4.752;2023-01-15T10:14:08;99850.66;;;9.17;56.48
46534;BME280;32260;52.008;4.752;2023-01-15T10:16:38;99856.19;;;9.08;56.76
46534;BME280;32260;52.008;4.752;2023-01-15T10:19:04;99852.22;;;9.23;56.35
46534;BME280;32260;52.008;4.752;2023-01-15T10:21:48;99859.69;;;9.38;56.12
46534;BME280;32260;52.008;4.752;2023-01-15T10:27:14;99872.69;;;9.46;55.76
46534;BME280;32260;52.008;4.752;2023-01-15T10:29:51;99874.34;;;9.49;55.71
46534;BME280;32260;52.008;4.752;2023-01-15T10:32:46;99887.81;;;9.41;56.15
46534;BME280;32260;52.008;4.752;2023-01-15T10:41:11;99884.22;;;9.44;56.09
46534;BME280;32260;52.008;4.752;2023-01-15T10:44:05;99875.06;;;9.54;56.24
46534;BME280;32260;52.008;4.752;2023-01-15T10:46:36;99875.91;;;9.56;55.90
46534;BME280;32260;52.008;4.752;2023-01-15T10:49:11;99873.97;;;9.61;55.01
46534;BME280;32260;52.008;4.752;2023-01-15T10:51:58;99899.50;;;9.62;54.88
46534;BME280;32260;52.008;4.752;2023-01-15T11:02:39;99877.72;;;9.54;55.31
46534;BME280;32260;52.008;4.752;2023-01-15T11:05:16;99880.47;;;9.51;55.74
46534;BME280;32260;52.008;4.752;2023-01-15T11:07:48;99894.78;;;9.44;55.46
46534;BME280;32260;52.008;4.752;2023-01-15T11:10:18;99887.13;;;9.34;55.52
46534;BME280;32260;52.008;4.752;2023-01-15T11:12:51;99891.50;;;9.35;56.17
46534;BME280;32260;52.008;4.752;2023-01-15T11:15:39;99900.53;;;9.28;56.04
46534;BME280;32260;52.008;4.752;2023-01-15T11:18:30;99881.09;;;9.29;56.58
46534;BME280;32260;52.008;4.752;2023-01-15T11:21:23;99911.25;;;9.23;56.76
46534;BME280;32260;52.008;4.752;2023-01-15T11:23:50;99875.81;;;9.29;57.13
46534;BME280;32260;52.008;4.752;2023-01-15T11:28:59;99880.19;;;9.30;57.06
46534;BME280;32260;52.008;4.752;2023-01-15T11:31:37;99877.38;;;9.36;57.02
46534;BME280;32260;52.008;4.752;2023-01-15T11:34:05;99884.22;;;9.44;57.12
46534;BME280;32260;52.008;4.752;2023-01-15T11:36:32;99882.59;;;9.39;57.40
46534;BME280;32260;52.008;4.752;2023-01-15T11:38:59;99878.53;;;9.56;57.43
46534;BME280;32260;52.008;4.752;2023-01-15T11:44:02;99879.69;;;9.47;57.97
46534;BME280;32260;52.008;4.752;2023-01-15T11:46:54;99848.16;;;9.41;58.36
46534;BME280;32260;52.008;4.752;2023-01-15T11:49:49;99858.78;;;9.39;59.48
46534;BME280;32260;52.008;4.752;2023-01-15T11:52:40;99873.53;;;9.17;60.99
46534;BME280;32260;52.008;4.752;2023-01-15T11:55:13;99899.72;;;8.96;61.81
46534;BME280;32260;52.008;4.752;2023-01-15T11:57:40;99866.34;;;8.92;62.14
46534;BME280;32260;52.008;4.752;2023-01-15T12:00:14;99856.50;;;8.67;63.35
46534;BME280;32260;52.008;4.752;2023-01-15T12:02:45;99916.22;;;8.37;64.62
46534;BME280;32260;52.008;4.752;2023-01-15T12:05:31;99887.22;;;8.35;64.66
46534;BME280;32260;52.008;4.752;2023-01-15T12:08:03;99891.19;;;8.19;66.27
46534;BME280;32260;52.008;4.752;2023-01-15T12:10:44;99884.66;;;7.98;68.08
46534;BME280;32260;52.008;4.752;2023-01-15T12:13:43;99876.78;;;7.96;68.06
46534;BME280;32260;52.008;4.752;2023-01-15T12:16:23;99865.09;;;8.06;68.12
46534;BME280;32260;52.008;4.752;2023-01-15T12:24:48;99887.03;;;8.08;68.27
46534;BME280;32260;52.008;4.752;2023-01-15T12:31:00;99870.44;;;8.03;68.41
46534;BME280;32260;52.008;4.752;2023-01-15T12:33:43;99864.47;;;7.97;68.86
46534;BME280;32260;52.008;4.752;2023-01-15T12:36:19;99874.03;;;8.01;68.99
46534;BME280;32260;52.008;4.752;2023-01-15T12:38:51;99876.63;;;8.02;69.46
46534;BME280;32260;52.008;4.752;2023-01-15T12:41:25;99875.50;;;8.13;68.66
46534;BME280;32260;52.008;4.752;2023-01-15T12:44:18;99868.41;;;8.15;69.32
46534;BME280;32260;52.008;4.752;2023-01-15T12:47:12;99869.75;;;8.31;69.06
46534;BME280;32260;52.008;4.752;2023-01-15T12:49:45;99874.09;;;8.32;68.17
46534;BME280;32260;52.008;4.752;2023-01-15T12:52:17;99859.03;;;8.37;67.29
46534;BME280;32260;52.008;4.752;2023-01-15T12:54:56;99867.56;;;8.49;66.51
46534;BME280;32260;52.008;4.752;2023-01-15T12:57:34;99869.03;;;8.59;64.77
46534;BME280;32260;52.008;4.752;2023-01-15T13:00:10;99872.84;;;8.80;64.50
46534;BME280;32260;52.008;4.752;2023-01-15T13:05:41;99873.00;;;9.05;62.37
46534;BME280;32260;52.008;4.752;2023-01-15T13:08:34;99890.41;;;9.13;60.07
46534;BME280;32260;52.008;4.752;2023-01-15T13:11:02;99882.97;;;9.27;59.33
46534;BME280;32260;52.008;4.752;2023-01-15T13:13:35;99869.63;;;9.30;58.82
46534;BME280;32260;52.008;4.752;2023-01-15T13:21:43;99875.75;;;9.32;57.13
46534;BME280;32260;52.008;4.752;2023-01-15T13:24:45;99874.69;;;9.38;56.99
46534;BME280;32260;52.008;4.752;2023-01-15T13:27:59;99882.38;;;9.46;57.29
46534;BME280;32260;52.008;4.752;2023-01-15T13:33:28;99887.75;;;9.43;57.00
46534;BME280;32260;52.008;4.752;2023-01-15T13:38:42;99895.56;;;9.47;56.22
46534;BME280;32260;52.008;4.752;2023-01-15T13:41:15;99882.94;;;9.55;56.57
46534;BME280;32260;52.008;4.752;2023-01-15T13:44:02;99890.94;;;9.54;56.16
46534;BME280;32260;52.008;4.752;2023-01-15T13:46:29;99894.59;;;9.50;55.69
46534;BME280;32260;52.008;4.752;2023-01-15T13:48:55;99900.03;;;9.45;55.23
46534;BME280;32260;52.008;4.752;2023-01-15T13:54:08;99899.78;;;9.53;55.97
46534;BME280;32260;52.008;4.752;2023-01-15T13:56:38;99930.25;;;9.36;56.42
46534;BME280;32260;52.008;4.752;2023-01-15T13:59:33;99891.22;;;9.45;57.10
46534;BME280;32260;52.008;4.752;2023-01-15T14:01:52;99901.81;;;9.45;57.98
46534;BME280;32260;52.008;4.752;2023-01-15T14:04:32;99901.69;;;9.48;58.51
46534;BME280;32260;52.008;4.752;2023-01-15T14:07:02;99904.41;;;9.46;58.97
46534;BME280;32260;52.008;4.752;2023-01-15T14:09:29;99914.31;;;9.39;58.54
46534;BME280;32260;52.008;4.752;2023-01-15T14:28:50;99932.78;;;9.69;54.89
46534;BME280;32260;52.008;4.752;2023-01-15T14:34:27;99927.97;;;9.54;54.12
46534;BME280;32260;52.008;4.752;2023-01-15T14:42:13;99943.00;;;9.52;55.88
46534;BME280;32260;52.008;4.752;2023-01-15T14:47:51;99935.34;;;9.43;58.49
46534;BME280;32260;52.008;4.752;2023-01-15T15:04:28;99939.03;;;9.37;55.53
46534;BME280;32260;52.008;4.752;2023-01-15T15:07:02;99927.59;;;9.36;55.67
46534;BME280;32260;52.008;4.752;2023-01-15T15:12:30;99965.97;;;9.20;55.25
46534;BME280;32260;52.008;4.752;2023-01-15T15:18:31;99942.56;;;9.37;57.04
46534;BME280;32260;52.008;4.752;2023-01-15T15:23:47;99936.97;;;9.18;57.70
46534;BME280;32260;52.008;4.752;2023-01-15T15:31:45;99962.66;;;8.80;59.15
46534;BME280;32260;52.008;4.752;2023-01-15T15:34:33;99968.78;;;8.81;58.77
46534;BME280;32260;52.008;4.752;2023-01-15T15:37:05;99952.94;;;8.81;59.02
46534;BME280;32260;52.008;4.752;2023-01-15T15:39:44;99955.16;;;8.63;59.14
46534;BME280;32260;52.008;4.752;2023-01-15T15:42:20;99951.47;;;8.70;59.50
46534;BME280;32260;52.008;4.752;2023-01-15T15:45:22;99963.69;;;8.74;59.57